sensor_id;sensor_type;location;lat;lon;timestamp;P1;durP1;ratioP1;P2;durP2;ratioP2
18726;SDS011;9492;51.888;5.186;2023-08-08T00:01:55;6.03;;;2.40;;
18726;SDS011;9492;51.888;5.186;2023-08-08T00:04:21;7.23;;;2.60;;
18726;SDS011;9492;51.888;5.186;2023-08-08T00:06:47;4.87;;;2.73;;
18726;SDS011;9492;51.888;5.186;2023-08-08T00:09:13;6.37;;;2.53;;
18726;SDS011;9492;51.888;5.186;2023-08-08T00:11:39;6.23;;;2.43;;
18726;SDS011;9492;51.888;5.186;2023-08-08T00:14:05;5.30;;;2.47;;
18726;SDS011;9492;51.888;5.186;2023-08-08T00:16:31;4.50;;;2.30;;
18726;SDS011;9492;51.888;5.186;2023-08-08T00:18:57;7.10;;;2.30;;
18726;SDS011;9492;51.888;5.186;2023-08-08T00:21:23;6.10;;;2.17;;
18726;SDS011;9492;51.888;5.186;2023-08-08T00:23:49;4.93;;;2.47;;
18726;SDS011;9492;51.888;5.186;2023-08-08T00:26:15;5.20;;;2.10;;
18726;SDS011;9492;51.888;5.186;2023-08-08T00:28:41;3.93;;;1.60;;
18726;SDS011;9492;51.888;5.186;2023-08-08T00:31:07;6.97;;;2.60;;
18726;SDS011;9492;51.888;5.186;2023-08-08T00:33:33;4.90;;;2.30;;
18726;SDS011;9492;51.888;5.186;2023-08-08T00:35:59;6.17;;;2.30;;
18726;SDS011;9492;51.888;5.186;2023-08-08T00:38:25;8.50;;;2.43;;
18726;SDS011;9492;51.888;5.186;2023-08-08T00:40:51;6.10;;;2.27;;
18726;SDS011;9492;51.888;5.186;2023-08-08T00:43:17;5.20;;;1.87;;
18726;SDS011;9492;51.888;5.186;2023-08-08T00:45:43;6.03;;;2.90;;
18726;SDS011;9492;51.888;5.186;2023-08-08T00:48:10;5.57;;;2.30;;
18726;SDS011;9492;51.888;5.186;2023-08-08T00:50:37;6.77;;;2.50;;
18726;SDS011;9492;51.888;5.186;2023-08-08T00:53:06;6.03;;;2.83;;
18726;SDS011;9492;51.888;5.186;2023-08-08T00:55:32;5.50;;;2.17;;
18726;SDS011;9492;51.888;5.186;2023-08-08T00:57:58;3.03;;;1.93;;
18726;SDS011;9492;51.888;5.186;2023-08-08T01:00:24;8.83;;;2.00;;
18726;SDS011;9492;51.888;5.186;2023-08-08T01:02:50;4.60;;;1.90;;
18726;SDS011;9492;51.888;5.186;2023-08-08T01:05:16;4.03;;;2.00;;
18726;SDS011;9492;51.888;5.186;2023-08-08T01:07:53;9.50;;;2.90;;
18726;SDS011;9492;51.888;5.186;2023-08-08T01:10:21;5.20;;;2.20;;
18726;SDS011;9492;51.888;5.186;2023-08-08T01:12:50;6.37;;;2.60;;
18726;SDS011;9492;51.888;5.186;2023-08-08T01:15:17;7.53;;;2.47;;
18726;SDS011;9492;51.888;5.186;2023-08-08T01:17:44;3.93;;;2.27;;
18726;SDS011;9492;51.888;5.186;2023-08-08T01:20:10;5.97;;;2.50;;
18726;SDS011;9492;51.888;5.186;2023-08-08T01:22:40;4.73;;;2.03;;
18726;SDS011;9492;51.888;5.186;2023-08-08T01:25:08;6.60;;;2.50;;
18726;SDS011;9492;51.888;5.186;2023-08-08T01:27:35;4.57;;;2.30;;
18726;SDS011;9492;51.888;5.186;2023-08-08T01:30:01;6.10;;;2.80;;
18726;SDS011;9492;51.888;5.186;2023-08-08T01:32:27;6.67;;;2.60;;
18726;SDS011;9492;51.888;5.186;2023-08-08T01:34:53;4.70;;;2.23;;
18726;SDS011;9492;51.888;5.186;2023-08-08T01:38:03;4.70;;;2.30;;
18726;SDS011;9492;51.888;5.186;2023-08-08T01:40:08;3.53;;;2.30;;
18726;SDS011;9492;51.888;5.186;2023-08-08T01:42:35;7.43;;;2.13;;
18726;SDS011;9492;51.888;5.186;2023-08-08T01:45:01;3.13;;;1.93;;
18726;SDS011;9492;51.888;5.186;2023-08-08T01:47:28;4.37;;;2.47;;
18726;SDS011;9492;51.888;5.186;2023-08-08T01:49:55;7.50;;;2.50;;
18726;SDS011;9492;51.888;5.186;2023-08-08T01:52:21;4.23;;;2.57;;
18726;SDS011;9492;51.888;5.186;2023-08-08T01:54:47;9.47;;;2.90;;
18726;SDS011;9492;51.888;5.186;2023-08-08T01:57:13;7.17;;;2.90;;
18726;SDS011;9492;51.888;5.186;2023-08-08T01:59:39;7.17;;;3.00;;
18726;SDS011;9492;51.888;5.186;2023-08-08T02:02:05;6.57;;;2.93;;
18726;SDS011;9492;51.888;5.186;2023-08-08T02:04:31;6.80;;;2.67;;
18726;SDS011;9492;51.888;5.186;2023-08-08T02:06:57;5.27;;;2.47;;
18726;SDS011;9492;51.888;5.186;2023-08-08T02:09:23;5.47;;;2.80;;
18726;SDS011;9492;51.888;5.186;2023-08-08T02:11:49;8.63;;;2.97;;
18726;SDS011;9492;51.888;5.186;2023-08-08T02:14:15;9.60;;;2.93;;
18726;SDS011;9492;51.888;5.186;2023-08-08T02:16:41;5.73;;;2.53;;
18726;SDS011;9492;51.888;5.186;2023-08-08T02:19:07;5.10;;;2.43;;
18726;SDS011;9492;51.888;5.186;2023-08-08T02:21:33;4.80;;;2.70;;
18726;SDS011;9492;51.888;5.186;2023-08-08T02:23:59;5.77;;;2.60;;
18726;SDS011;9492;51.888;5.186;2023-08-08T02:26:27;7.80;;;3.03;;
18726;SDS011;9492;51.888;5.186;2023-08-08T02:28:53;7.07;;;2.63;;
18726;SDS011;9492;51.888;5.186;2023-08-08T02:31:19;4.37;;;2.40;;
18726;SDS011;9492;51.888;5.186;2023-08-08T02:33:49;4.27;;;2.33;;
18726;SDS011;9492;51.888;5.186;2023-08-08T02:36:16;9.43;;;3.23;;
18726;SDS011;9492;51.888;5.186;2023-08-08T02:38:42;9.10;;;3.20;;
18726;SDS011;9492;51.888;5.186;2023-08-08T02:41:08;7.67;;;2.90;;
18726;SDS011;9492;51.888;5.186;2023-08-08T02:43:34;5.13;;;2.63;;
18726;SDS011;9492;51.888;5.186;2023-08-08T02:46:00;7.37;;;3.20;;
18726;SDS011;9492;51.888;5.186;2023-08-08T02:48:26;4.17;;;2.70;;
18726;SDS011;9492;51.888;5.186;2023-08-08T02:50:52;10.20;;;3.37;;
18726;SDS011;9492;51.888;5.186;2023-08-08T02:53:18;6.47;;;3.40;;
18726;SDS011;9492;51.888;5.186;2023-08-08T02:55:44;7.00;;;3.03;;
18726;SDS011;9492;51.888;5.186;2023-08-08T02:58:10;7.27;;;2.80;;
18726;SDS011;9492;51.888;5.186;2023-08-08T03:00:36;6.80;;;2.60;;
18726;SDS011;9492;51.888;5.186;2023-08-08T03:03:02;4.83;;;2.60;;
18726;SDS011;9492;51.888;5.186;2023-08-08T03:05:28;10.83;;;3.43;;
18726;SDS011;9492;51.888;5.186;2023-08-08T03:07:54;11.43;;;3.10;;
18726;SDS011;9492;51.888;5.186;2023-08-08T03:10:20;5.60;;;2.93;;
18726;SDS011;9492;51.888;5.186;2023-08-08T03:12:46;5.87;;;3.20;;
18726;SDS011;9492;51.888;5.186;2023-08-08T03:15:12;8.13;;;3.40;;
18726;SDS011;9492;51.888;5.186;2023-08-08T03:17:38;8.03;;;3.10;;
18726;SDS011;9492;51.888;5.186;2023-08-08T03:20:04;6.80;;;3.20;;
18726;SDS011;9492;51.888;5.186;2023-08-08T03:22:31;7.47;;;3.00;;
18726;SDS011;9492;51.888;5.186;2023-08-08T03:24:57;5.77;;;2.73;;
18726;SDS011;9492;51.888;5.186;2023-08-08T03:27:24;6.93;;;3.53;;
18726;SDS011;9492;51.888;5.186;2023-08-08T03:29:50;7.07;;;2.97;;
18726;SDS011;9492;51.888;5.186;2023-08-08T03:32:16;8.33;;;3.63;;
18726;SDS011;9492;51.888;5.186;2023-08-08T03:34:42;10.93;;;3.37;;
18726;SDS011;9492;51.888;5.186;2023-08-08T03:37:08;7.30;;;3.63;;
18726;SDS011;9492;51.888;5.186;2023-08-08T03:39:34;7.07;;;3.13;;
18726;SDS011;9492;51.888;5.186;2023-08-08T03:42:00;7.70;;;3.37;;
18726;SDS011;9492;51.888;5.186;2023-08-08T03:44:26;7.00;;;3.53;;
18726;SDS011;9492;51.888;5.186;2023-08-08T03:46:52;7.53;;;3.27;;
18726;SDS011;9492;51.888;5.186;2023-08-08T03:49:18;9.77;;;3.67;;
18726;SDS011;9492;51.888;5.186;2023-08-08T03:51:44;5.40;;;3.07;;
18726;SDS011;9492;51.888;5.186;2023-08-08T03:54:10;6.30;;;3.30;;
18726;SDS011;9492;51.888;5.186;2023-08-08T03:56:36;9.87;;;3.70;;
18726;SDS011;9492;51.888;5.186;2023-08-08T03:59:02;7.53;;;3.53;;
18726;SDS011;9492;51.888;5.186;2023-08-08T04:01:28;6.93;;;3.43;;
18726;SDS011;9492;51.888;5.186;2023-08-08T04:03:54;11.03;;;3.60;;
18726;SDS011;9492;51.888;5.186;2023-08-08T04:06:20;5.20;;;3.50;;
18726;SDS011;9492;51.888;5.186;2023-08-08T04:08:46;8.20;;;3.70;;
18726;SDS011;9492;51.888;5.186;2023-08-08T04:11:12;11.00;;;3.80;;
18726;SDS011;9492;51.888;5.186;2023-08-08T04:13:38;10.50;;;3.50;;
18726;SDS011;9492;51.888;5.186;2023-08-08T04:16:04;9.90;;;4.17;;
18726;SDS011;9492;51.888;5.186;2023-08-08T04:18:30;6.73;;;3.83;;
18726;SDS011;9492;51.888;5.186;2023-08-08T04:20:56;7.60;;;3.50;;
18726;SDS011;9492;51.888;5.186;2023-08-08T04:23:22;5.43;;;3.07;;
18726;SDS011;9492;51.888;5.186;2023-08-08T04:25:50;7.57;;;3.67;;
18726;SDS011;9492;51.888;5.186;2023-08-08T04:28:16;9.33;;;3.60;;
18726;SDS011;9492;51.888;5.186;2023-08-08T04:30:42;10.33;;;4.00;;
18726;SDS011;9492;51.888;5.186;2023-08-08T04:33:08;8.10;;;3.70;;
18726;SDS011;9492;51.888;5.186;2023-08-08T04:35:34;7.60;;;3.53;;
18726;SDS011;9492;51.888;5.186;2023-08-08T04:38:00;10.67;;;3.87;;
18726;SDS011;9492;51.888;5.186;2023-08-08T04:40:26;10.67;;;3.43;;
18726;SDS011;9492;51.888;5.186;2023-08-08T04:42:52;6.43;;;3.53;;
18726;SDS011;9492;51.888;5.186;2023-08-08T04:45:18;10.07;;;4.00;;
18726;SDS011;9492;51.888;5.186;2023-08-08T04:47:46;5.53;;;3.73;;
18726;SDS011;9492;51.888;5.186;2023-08-08T04:50:12;7.60;;;3.50;;
18726;SDS011;9492;51.888;5.186;2023-08-08T04:52:37;6.60;;;3.37;;
18726;SDS011;9492;51.888;5.186;2023-08-08T04:55:04;7.67;;;3.53;;
18726;SDS011;9492;51.888;5.186;2023-08-08T04:57:30;5.73;;;3.20;;
18726;SDS011;9492;51.888;5.186;2023-08-08T04:59:56;7.47;;;3.37;;
18726;SDS011;9492;51.888;5.186;2023-08-08T05:02:22;11.70;;;3.10;;
18726;SDS011;9492;51.888;5.186;2023-08-08T05:04:48;5.73;;;2.90;;
18726;SDS011;9492;51.888;5.186;2023-08-08T05:07:15;7.03;;;3.40;;
18726;SDS011;9492;51.888;5.186;2023-08-08T05:09:41;6.80;;;2.97;;
18726;SDS011;9492;51.888;5.186;2023-08-08T05:12:07;6.20;;;2.67;;
18726;SDS011;9492;51.888;5.186;2023-08-08T05:14:33;7.07;;;2.80;;
18726;SDS011;9492;51.888;5.186;2023-08-08T05:17:00;6.90;;;3.03;;
18726;SDS011;9492;51.888;5.186;2023-08-08T05:19:26;6.03;;;2.80;;
18726;SDS011;9492;51.888;5.186;2023-08-08T05:21:52;5.83;;;2.73;;
18726;SDS011;9492;51.888;5.186;2023-08-08T05:24:18;4.00;;;2.67;;
18726;SDS011;9492;51.888;5.186;2023-08-08T05:26:44;5.00;;;2.50;;
18726;SDS011;9492;51.888;5.186;2023-08-08T05:29:10;5.53;;;2.50;;
18726;SDS011;9492;51.888;5.186;2023-08-08T05:31:36;3.67;;;2.20;;
18726;SDS011;9492;51.888;5.186;2023-08-08T05:34:02;5.80;;;2.53;;
18726;SDS011;9492;51.888;5.186;2023-08-08T05:36:28;5.03;;;2.77;;
18726;SDS011;9492;51.888;5.186;2023-08-08T05:38:54;5.40;;;2.00;;
18726;SDS011;9492;51.888;5.186;2023-08-08T05:41:20;5.70;;;2.03;;
18726;SDS011;9492;51.888;5.186;2023-08-08T05:43:46;4.10;;;2.17;;
18726;SDS011;9492;51.888;5.186;2023-08-08T05:46:12;5.73;;;2.00;;
18726;SDS011;9492;51.888;5.186;2023-08-08T05:48:38;6.53;;;2.40;;
18726;SDS011;9492;51.888;5.186;2023-08-08T05:51:04;6.63;;;2.33;;
18726;SDS011;9492;51.888;5.186;2023-08-08T05:53:31;3.50;;;2.20;;
18726;SDS011;9492;51.888;5.186;2023-08-08T05:55:57;4.33;;;2.57;;
18726;SDS011;9492;51.888;5.186;2023-08-08T05:58:23;4.23;;;2.30;;
18726;SDS011;9492;51.888;5.186;2023-08-08T06:00:49;5.33;;;2.03;;
18726;SDS011;9492;51.888;5.186;2023-08-08T06:03:15;6.40;;;2.53;;
18726;SDS011;9492;51.888;5.186;2023-08-08T06:05:41;4.13;;;1.93;;
18726;SDS011;9492;51.888;5.186;2023-08-08T06:08:07;6.37;;;2.30;;
18726;SDS011;9492;51.888;5.186;2023-08-08T06:10:36;3.47;;;2.13;;
18726;SDS011;9492;51.888;5.186;2023-08-08T06:13:02;4.07;;;1.87;;
18726;SDS011;9492;51.888;5.186;2023-08-08T06:15:28;4.33;;;2.00;;
18726;SDS011;9492;51.888;5.186;2023-08-08T06:17:54;2.23;;;1.73;;
18726;SDS011;9492;51.888;5.186;2023-08-08T06:20:20;3.60;;;2.03;;
18726;SDS011;9492;51.888;5.186;2023-08-08T06:22:46;2.80;;;2.07;;
18726;SDS011;9492;51.888;5.186;2023-08-08T06:25:12;4.50;;;2.07;;
18726;SDS011;9492;51.888;5.186;2023-08-08T06:27:39;2.37;;;1.73;;
18726;SDS011;9492;51.888;5.186;2023-08-08T06:30:05;1.97;;;1.40;;
18726;SDS011;9492;51.888;5.186;2023-08-08T06:32:31;2.23;;;1.23;;
18726;SDS011;9492;51.888;5.186;2023-08-08T06:34:57;1.77;;;1.03;;
18726;SDS011;9492;51.888;5.186;2023-08-08T06:37:23;3.17;;;1.10;;
18726;SDS011;9492;51.888;5.186;2023-08-08T06:39:49;3.80;;;1.37;;
18726;SDS011;9492;51.888;5.186;2023-08-08T06:42:15;2.67;;;1.20;;
18726;SDS011;9492;51.888;5.186;2023-08-08T06:44:42;2.47;;;1.30;;
18726;SDS011;9492;51.888;5.186;2023-08-08T06:47:08;1.53;;;1.10;;
18726;SDS011;9492;51.888;5.186;2023-08-08T06:49:34;3.67;;;1.40;;
18726;SDS011;9492;51.888;5.186;2023-08-08T06:52:00;2.00;;;1.10;;
18726;SDS011;9492;51.888;5.186;2023-08-08T06:54:26;1.47;;;1.20;;
18726;SDS011;9492;51.888;5.186;2023-08-08T06:56:55;2.83;;;1.67;;
18726;SDS011;9492;51.888;5.186;2023-08-08T06:59:22;3.97;;;1.10;;
18726;SDS011;9492;51.888;5.186;2023-08-08T07:01:48;2.67;;;1.20;;
18726;SDS011;9492;51.888;5.186;2023-08-08T07:04:14;1.73;;;1.17;;
18726;SDS011;9492;51.888;5.186;2023-08-08T07:06:42;2.07;;;1.07;;
18726;SDS011;9492;51.888;5.186;2023-08-08T07:09:08;2.47;;;1.20;;
18726;SDS011;9492;51.888;5.186;2023-08-08T07:11:37;1.37;;;0.90;;
18726;SDS011;9492;51.888;5.186;2023-08-08T07:14:03;7.00;;;1.57;;
18726;SDS011;9492;51.888;5.186;2023-08-08T07:16:29;3.03;;;1.10;;
18726;SDS011;9492;51.888;5.186;2023-08-08T07:18:55;1.50;;;1.10;;
18726;SDS011;9492;51.888;5.186;2023-08-08T07:21:21;2.33;;;1.00;;
18726;SDS011;9492;51.888;5.186;2023-08-08T07:23:47;3.07;;;1.00;;
18726;SDS011;9492;51.888;5.186;2023-08-08T07:26:13;1.43;;;0.80;;
18726;SDS011;9492;51.888;5.186;2023-08-08T07:28:39;2.30;;;1.10;;
18726;SDS011;9492;51.888;5.186;2023-08-08T07:31:05;3.00;;;1.10;;
18726;SDS011;9492;51.888;5.186;2023-08-08T07:33:31;1.87;;;0.70;;
18726;SDS011;9492;51.888;5.186;2023-08-08T07:35:57;1.33;;;0.67;;
18726;SDS011;9492;51.888;5.186;2023-08-08T07:38:23;0.67;;;0.67;;
18726;SDS011;9492;51.888;5.186;2023-08-08T07:40:49;4.13;;;1.20;;
18726;SDS011;9492;51.888;5.186;2023-08-08T07:43:15;2.57;;;0.83;;
18726;SDS011;9492;51.888;5.186;2023-08-08T07:45:41;1.27;;;0.80;;
18726;SDS011;9492;51.888;5.186;2023-08-08T07:48:07;1.77;;;0.90;;
18726;SDS011;9492;51.888;5.186;2023-08-08T07:50:33;1.60;;;0.80;;
18726;SDS011;9492;51.888;5.186;2023-08-08T07:52:59;1.87;;;0.70;;
18726;SDS011;9492;51.888;5.186;2023-08-08T07:55:25;1.57;;;0.83;;
18726;SDS011;9492;51.888;5.186;2023-08-08T07:57:51;4.37;;;0.77;;
18726;SDS011;9492;51.888;5.186;2023-08-08T08:00:17;4.53;;;1.20;;
18726;SDS011;9492;51.888;5.186;2023-08-08T08:02:44;2.03;;;0.80;;
18726;SDS011;9492;51.888;5.186;2023-08-08T08:05:11;2.13;;;1.10;;
18726;SDS011;9492;51.888;5.186;2023-08-08T08:07:37;1.73;;;0.90;;
18726;SDS011;9492;51.888;5.186;2023-08-08T08:10:04;2.70;;;0.73;;
18726;SDS011;9492;51.888;5.186;2023-08-08T08:12:31;1.73;;;0.80;;
18726;SDS011;9492;51.888;5.186;2023-08-08T08:14:57;2.03;;;0.90;;
18726;SDS011;9492;51.888;5.186;2023-08-08T08:17:23;1.40;;;0.83;;
18726;SDS011;9492;51.888;5.186;2023-08-08T08:19:50;1.20;;;0.73;;
18726;SDS011;9492;51.888;5.186;2023-08-08T08:22:16;2.90;;;0.90;;
18726;SDS011;9492;51.888;5.186;2023-08-08T08:24:42;2.43;;;0.80;;
18726;SDS011;9492;51.888;5.186;2023-08-08T08:27:08;0.93;;;0.60;;
18726;SDS011;9492;51.888;5.186;2023-08-08T08:29:34;2.00;;;0.70;;
18726;SDS011;9492;51.888;5.186;2023-08-08T08:32:00;1.87;;;0.73;;
18726;SDS011;9492;51.888;5.186;2023-08-08T08:34:26;1.83;;;0.80;;
18726;SDS011;9492;51.888;5.186;2023-08-08T08:36:52;5.03;;;1.00;;
18726;SDS011;9492;51.888;5.186;2023-08-08T08:39:18;2.33;;;0.70;;
18726;SDS011;9492;51.888;5.186;2023-08-08T08:41:44;3.80;;;0.73;;
18726;SDS011;9492;51.888;5.186;2023-08-08T08:44:14;0.77;;;0.60;;
18726;SDS011;9492;51.888;5.186;2023-08-08T08:46:40;3.47;;;0.90;;
18726;SDS011;9492;51.888;5.186;2023-08-08T08:49:06;3.43;;;0.93;;
18726;SDS011;9492;51.888;5.186;2023-08-08T08:51:36;1.53;;;0.90;;
18726;SDS011;9492;51.888;5.186;2023-08-08T08:54:02;4.73;;;1.07;;
18726;SDS011;9492;51.888;5.186;2023-08-08T08:56:29;2.70;;;0.80;;
18726;SDS011;9492;51.888;5.186;2023-08-08T08:58:55;1.00;;;0.47;;
18726;SDS011;9492;51.888;5.186;2023-08-08T09:01:21;2.13;;;0.73;;
18726;SDS011;9492;51.888;5.186;2023-08-08T09:03:48;1.53;;;0.70;;
18726;SDS011;9492;51.888;5.186;2023-08-08T09:06:14;0.93;;;0.60;;
18726;SDS011;9492;51.888;5.186;2023-08-08T09:08:41;1.80;;;0.60;;
18726;SDS011;9492;51.888;5.186;2023-08-08T09:11:07;3.37;;;0.70;;
18726;SDS011;9492;51.888;5.186;2023-08-08T09:13:37;1.60;;;0.73;;
18726;SDS011;9492;51.888;5.186;2023-08-08T09:16:04;2.00;;;0.70;;
18726;SDS011;9492;51.888;5.186;2023-08-08T09:18:31;1.63;;;0.80;;
18726;SDS011;9492;51.888;5.186;2023-08-08T09:20:57;1.43;;;0.70;;
18726;SDS011;9492;51.888;5.186;2023-08-08T09:23:23;2.40;;;0.60;;
18726;SDS011;9492;51.888;5.186;2023-08-08T09:25:50;4.30;;;1.13;;
18726;SDS011;9492;51.888;5.186;2023-08-08T09:28:16;1.50;;;0.80;;
18726;SDS011;9492;51.888;5.186;2023-08-08T09:30:42;0.93;;;0.70;;
18726;SDS011;9492;51.888;5.186;2023-08-08T09:33:08;1.80;;;1.17;;
18726;SDS011;9492;51.888;5.186;2023-08-08T09:35:34;0.80;;;0.67;;
18726;SDS011;9492;51.888;5.186;2023-08-08T09:38:03;1.60;;;0.80;;
18726;SDS011;9492;51.888;5.186;2023-08-08T09:40:29;1.40;;;0.70;;
18726;SDS011;9492;51.888;5.186;2023-08-08T09:42:56;1.60;;;0.77;;
18726;SDS011;9492;51.888;5.186;2023-08-08T09:45:23;3.53;;;0.90;;
18726;SDS011;9492;51.888;5.186;2023-08-08T09:47:49;1.37;;;0.80;;
18726;SDS011;9492;51.888;5.186;2023-08-08T09:50:15;1.70;;;0.63;;
18726;SDS011;9492;51.888;5.186;2023-08-08T09:52:43;0.70;;;0.70;;
18726;SDS011;9492;51.888;5.186;2023-08-08T09:55:10;1.60;;;0.80;;
18726;SDS011;9492;51.888;5.186;2023-08-08T09:57:38;1.20;;;1.07;;
18726;SDS011;9492;51.888;5.186;2023-08-08T10:00:05;0.83;;;0.83;;
18726;SDS011;9492;51.888;5.186;2023-08-08T10:02:35;1.07;;;0.87;;
18726;SDS011;9492;51.888;5.186;2023-08-08T10:05:02;1.17;;;0.70;;
18726;SDS011;9492;51.888;5.186;2023-08-08T10:07:29;1.13;;;0.80;;
18726;SDS011;9492;51.888;5.186;2023-08-08T10:09:56;1.67;;;0.87;;
18726;SDS011;9492;51.888;5.186;2023-08-08T10:12:22;3.03;;;0.90;;
18726;SDS011;9492;51.888;5.186;2023-08-08T10:14:49;1.23;;;0.90;;
18726;SDS011;9492;51.888;5.186;2023-08-08T10:17:15;1.27;;;0.87;;
18726;SDS011;9492;51.888;5.186;2023-08-08T10:19:53;1.17;;;0.90;;
18726;SDS011;9492;51.888;5.186;2023-08-08T10:22:21;1.27;;;0.90;;
18726;SDS011;9492;51.888;5.186;2023-08-08T10:24:51;1.60;;;1.00;;
18726;SDS011;9492;51.888;5.186;2023-08-08T10:27:28;1.80;;;0.90;;
18726;SDS011;9492;51.888;5.186;2023-08-08T10:30:00;1.00;;;0.70;;
18726;SDS011;9492;51.888;5.186;2023-08-08T10:32:26;0.73;;;0.70;;
18726;SDS011;9492;51.888;5.186;2023-08-08T10:34:54;3.00;;;1.07;;
18726;SDS011;9492;51.888;5.186;2023-08-08T10:37:21;1.23;;;1.13;;
18726;SDS011;9492;51.888;5.186;2023-08-08T10:39:50;3.17;;;0.70;;
18726;SDS011;9492;51.888;5.186;2023-08-08T10:42:17;1.60;;;0.67;;
18726;SDS011;9492;51.888;5.186;2023-08-08T10:44:50;2.57;;;0.73;;
18726;SDS011;9492;51.888;5.186;2023-08-08T10:47:20;2.80;;;0.80;;
18726;SDS011;9492;51.888;5.186;2023-08-08T10:49:55;1.70;;;0.80;;
18726;SDS011;9492;51.888;5.186;2023-08-08T10:52:21;2.97;;;0.90;;
18726;SDS011;9492;51.888;5.186;2023-08-08T10:54:53;1.63;;;0.83;;
18726;SDS011;9492;51.888;5.186;2023-08-08T10:57:20;2.00;;;0.90;;
18726;SDS011;9492;51.888;5.186;2023-08-08T10:59:46;0.83;;;0.70;;
18726;SDS011;9492;51.888;5.186;2023-08-08T11:02:12;0.97;;;0.80;;
18726;SDS011;9492;51.888;5.186;2023-08-08T11:04:39;3.60;;;0.90;;
18726;SDS011;9492;51.888;5.186;2023-08-08T11:07:06;1.83;;;0.90;;
18726;SDS011;9492;51.888;5.186;2023-08-08T11:09:32;0.90;;;0.70;;
18726;SDS011;9492;51.888;5.186;2023-08-08T11:11:58;1.33;;;0.60;;
18726;SDS011;9492;51.888;5.186;2023-08-08T11:14:24;2.93;;;0.90;;
18726;SDS011;9492;51.888;5.186;2023-08-08T11:16:51;1.43;;;0.80;;
18726;SDS011;9492;51.888;5.186;2023-08-08T11:19:17;1.60;;;0.97;;
18726;SDS011;9492;51.888;5.186;2023-08-08T11:21:44;1.07;;;0.83;;
18726;SDS011;9492;51.888;5.186;2023-08-08T11:24:11;1.03;;;0.93;;
18726;SDS011;9492;51.888;5.186;2023-08-08T11:26:38;1.67;;;0.77;;
18726;SDS011;9492;51.888;5.186;2023-08-08T11:29:05;0.60;;;0.60;;
18726;SDS011;9492;51.888;5.186;2023-08-08T11:31:31;1.20;;;0.90;;
18726;SDS011;9492;51.888;5.186;2023-08-08T11:33:58;0.70;;;0.70;;
18726;SDS011;9492;51.888;5.186;2023-08-08T11:36:25;2.03;;;0.73;;
18726;SDS011;9492;51.888;5.186;2023-08-08T11:38:51;5.37;;;1.10;;
18726;SDS011;9492;51.888;5.186;2023-08-08T11:41:19;1.03;;;1.00;;
18726;SDS011;9492;51.888;5.186;2023-08-08T11:43:45;0.83;;;0.83;;
18726;SDS011;9492;51.888;5.186;2023-08-08T11:46:12;2.50;;;0.87;;
18726;SDS011;9492;51.888;5.186;2023-08-08T11:48:39;2.20;;;1.00;;
18726;SDS011;9492;51.888;5.186;2023-08-08T11:51:05;1.30;;;0.70;;
18726;SDS011;9492;51.888;5.186;2023-08-08T11:53:35;2.77;;;0.70;;
18726;SDS011;9492;51.888;5.186;2023-08-08T11:56:01;3.10;;;0.90;;
18726;SDS011;9492;51.888;5.186;2023-08-08T11:58:31;1.73;;;0.93;;
18726;SDS011;9492;51.888;5.186;2023-08-08T12:00:57;0.97;;;0.90;;
18726;SDS011;9492;51.888;5.186;2023-08-08T12:03:25;1.90;;;1.00;;
18726;SDS011;9492;51.888;5.186;2023-08-08T12:05:51;2.87;;;0.87;;
18726;SDS011;9492;51.888;5.186;2023-08-08T12:08:21;3.13;;;1.10;;
18726;SDS011;9492;51.888;5.186;2023-08-08T12:10:49;1.43;;;0.90;;
18726;SDS011;9492;51.888;5.186;2023-08-08T12:13:19;1.17;;;0.87;;
18726;SDS011;9492;51.888;5.186;2023-08-08T12:15:45;0.80;;;0.80;;
18726;SDS011;9492;51.888;5.186;2023-08-08T12:18:11;1.47;;;0.80;;
18726;SDS011;9492;51.888;5.186;2023-08-08T12:20:37;1.00;;;0.90;;
18726;SDS011;9492;51.888;5.186;2023-08-08T12:23:03;2.37;;;1.13;;
18726;SDS011;9492;51.888;5.186;2023-08-08T12:25:29;0.90;;;0.90;;
18726;SDS011;9492;51.888;5.186;2023-08-08T12:27:55;2.33;;;0.80;;
18726;SDS011;9492;51.888;5.186;2023-08-08T12:30:21;0.97;;;0.93;;
18726;SDS011;9492;51.888;5.186;2023-08-08T12:32:47;1.27;;;0.87;;
18726;SDS011;9492;51.888;5.186;2023-08-08T12:35:13;3.70;;;1.10;;
18726;SDS011;9492;51.888;5.186;2023-08-08T12:37:41;0.87;;;0.87;;
18726;SDS011;9492;51.888;5.186;2023-08-08T12:40:07;1.13;;;0.90;;
18726;SDS011;9492;51.888;5.186;2023-08-08T12:42:34;1.00;;;0.90;;
18726;SDS011;9492;51.888;5.186;2023-08-08T12:45:00;2.47;;;1.10;;
18726;SDS011;9492;51.888;5.186;2023-08-08T12:47:26;2.00;;;0.80;;
18726;SDS011;9492;51.888;5.186;2023-08-08T12:49:54;2.20;;;0.93;;
18726;SDS011;9492;51.888;5.186;2023-08-08T12:52:20;1.00;;;0.73;;
18726;SDS011;9492;51.888;5.186;2023-08-08T12:54:46;0.90;;;0.90;;
18726;SDS011;9492;51.888;5.186;2023-08-08T12:57:12;1.10;;;0.93;;
18726;SDS011;9492;51.888;5.186;2023-08-08T12:59:38;1.27;;;0.80;;
18726;SDS011;9492;51.888;5.186;2023-08-08T13:02:04;2.10;;;1.03;;
18726;SDS011;9492;51.888;5.186;2023-08-08T13:04:30;1.63;;;0.93;;
18726;SDS011;9492;51.888;5.186;2023-08-08T13:06:56;1.90;;;0.80;;
18726;SDS011;9492;51.888;5.186;2023-08-08T13:09:22;1.60;;;0.93;;
18726;SDS011;9492;51.888;5.186;2023-08-08T13:11:48;1.63;;;1.10;;
18726;SDS011;9492;51.888;5.186;2023-08-08T13:14:14;1.10;;;0.67;;
18726;SDS011;9492;51.888;5.186;2023-08-08T13:16:40;1.97;;;0.57;;
18726;SDS011;9492;51.888;5.186;2023-08-08T13:19:06;1.70;;;0.70;;
18726;SDS011;9492;51.888;5.186;2023-08-08T13:21:32;1.13;;;0.90;;
18726;SDS011;9492;51.888;5.186;2023-08-08T13:23:58;1.90;;;1.00;;
18726;SDS011;9492;51.888;5.186;2023-08-08T13:26:24;1.17;;;0.60;;
18726;SDS011;9492;51.888;5.186;2023-08-08T13:28:50;1.20;;;0.70;;
18726;SDS011;9492;51.888;5.186;2023-08-08T13:31:16;1.77;;;0.83;;
18726;SDS011;9492;51.888;5.186;2023-08-08T13:33:42;1.90;;;0.63;;
18726;SDS011;9492;51.888;5.186;2023-08-08T13:36:08;1.10;;;0.70;;
18726;SDS011;9492;51.888;5.186;2023-08-08T13:38:34;1.03;;;0.67;;
18726;SDS011;9492;51.888;5.186;2023-08-08T13:41:00;0.80;;;0.70;;
18726;SDS011;9492;51.888;5.186;2023-08-08T13:43:26;1.93;;;0.83;;
18726;SDS011;9492;51.888;5.186;2023-08-08T13:45:52;0.60;;;0.60;;
18726;SDS011;9492;51.888;5.186;2023-08-08T13:48:18;3.63;;;1.30;;
18726;SDS011;9492;51.888;5.186;2023-08-08T13:50:44;2.10;;;0.80;;
18726;SDS011;9492;51.888;5.186;2023-08-08T13:53:10;2.70;;;0.97;;
18726;SDS011;9492;51.888;5.186;2023-08-08T13:55:36;0.80;;;0.70;;
18726;SDS011;9492;51.888;5.186;2023-08-08T13:58:05;1.10;;;1.00;;
18726;SDS011;9492;51.888;5.186;2023-08-08T14:00:31;1.13;;;1.00;;
18726;SDS011;9492;51.888;5.186;2023-08-08T14:02:57;1.53;;;1.07;;
18726;SDS011;9492;51.888;5.186;2023-08-08T14:05:24;2.37;;;0.90;;
18726;SDS011;9492;51.888;5.186;2023-08-08T14:07:50;3.67;;;1.27;;
18726;SDS011;9492;51.888;5.186;2023-08-08T14:10:16;1.57;;;1.10;;
18726;SDS011;9492;51.888;5.186;2023-08-08T14:12:42;2.00;;;1.30;;
18726;SDS011;9492;51.888;5.186;2023-08-08T14:15:08;2.10;;;0.93;;
18726;SDS011;9492;51.888;5.186;2023-08-08T14:17:34;1.47;;;0.90;;
18726;SDS011;9492;51.888;5.186;2023-08-08T14:20:00;2.00;;;0.90;;
18726;SDS011;9492;51.888;5.186;2023-08-08T14:22:27;1.93;;;0.97;;
18726;SDS011;9492;51.888;5.186;2023-08-08T14:24:53;3.83;;;1.47;;
18726;SDS011;9492;51.888;5.186;2023-08-08T14:27:18;2.20;;;0.87;;
18726;SDS011;9492;51.888;5.186;2023-08-08T14:29:45;0.90;;;0.80;;
18726;SDS011;9492;51.888;5.186;2023-08-08T14:32:10;2.27;;;1.27;;
18726;SDS011;9492;51.888;5.186;2023-08-08T14:34:36;0.97;;;0.90;;
18726;SDS011;9492;51.888;5.186;2023-08-08T14:37:04;1.93;;;1.13;;
18726;SDS011;9492;51.888;5.186;2023-08-08T14:39:30;1.80;;;0.93;;
18726;SDS011;9492;51.888;5.186;2023-08-08T14:41:57;1.93;;;1.10;;
18726;SDS011;9492;51.888;5.186;2023-08-08T14:44:24;2.97;;;1.10;;
18726;SDS011;9492;51.888;5.186;2023-08-08T14:46:50;1.23;;;1.10;;
18726;SDS011;9492;51.888;5.186;2023-08-08T14:49:16;1.83;;;0.97;;
18726;SDS011;9492;51.888;5.186;2023-08-08T14:51:42;1.07;;;0.90;;
18726;SDS011;9492;51.888;5.186;2023-08-08T14:54:08;1.47;;;0.93;;
18726;SDS011;9492;51.888;5.186;2023-08-08T14:56:34;1.07;;;0.97;;